createdAt,value
2019-03-04T00:00:22.942Z,91.13
2019-03-04T00:01:27.316Z,91.15
2019-03-04T00:02:31.651Z,91.14
2019-03-04T00:03:36.145Z,91.15
2019-03-04T00:04:40.353Z,91.14
2019-03-04T00:05:44.629Z,91.09
2019-03-04T00:06:48.922Z,91.08
2019-03-04T00:07:53.288Z,91.09
2019-03-04T00:08:57.529Z,91.09
2019-03-04T00:10:01.821Z,91.09
2019-03-04T00:11:06.224Z,91.08
2019-03-04T00:12:10.494Z,91.05
2019-03-04T00:13:14.908Z,91.04
2019-03-04T00:14:19.148Z,91.03
2019-03-04T00:15:23.515Z,91.08
2019-03-04T00:16:27.768Z,91.05
2019-03-04T00:17:32.008Z,91.02
2019-03-04T00:18:36.338Z,91.03
2019-03-04T00:19:40.691Z,91.05
2019-03-04T00:20:44.926Z,90.99
2019-03-04T00:21:49.139Z,91.00
2019-03-04T00:22:53.510Z,90.97
2019-03-04T00:23:57.703Z,90.94
2019-03-04T00:25:02.010Z,90.96
2019-03-04T00:26:06.341Z,90.93
2019-03-04T00:27:10.596Z,90.91
2019-03-04T00:28:14.907Z,90.89
2019-03-04T00:29:19.007Z,90.89
2019-03-04T00:30:23.360Z,90.91
2019-03-04T00:31:27.652Z,90.93
2019-03-04T00:32:31.824Z,90.96
2019-03-04T00:33:36.200Z,90.86
2019-03-04T00:34:40.484Z,90.83
2019-03-04T00:35:44.770Z,90.89
2019-03-04T00:36:49.040Z,90.83
2019-03-04T00:37:53.248Z,90.75
2019-03-04T00:38:57.608Z,90.81
2019-03-04T00:40:01.893Z,90.81
2019-03-04T00:41:06.099Z,90.80
2019-03-04T00:42:10.424Z,90.82
2019-03-04T00:43:14.709Z,90.79
2019-03-04T00:44:18.991Z,90.77
2019-03-04T00:45:23.397Z,90.74
2019-03-04T00:46:27.631Z,90.78
2019-03-04T00:47:31.910Z,90.75
2019-03-04T00:48:36.235Z,90.73
2019-03-04T00:49:40.503Z,90.74
2019-03-04T00:50:44.883Z,90.76
2019-03-04T00:51:49.101Z,90.76
2019-03-04T00:52:53.194Z,90.75
2019-03-04T00:53:57.704Z,90.72
2019-03-04T00:55:01.954Z,90.69
2019-03-04T00:56:06.335Z,90.68
2019-03-04T00:57:10.573Z,90.65
2019-03-04T00:58:14.753Z,90.63
2019-03-04T00:59:18.922Z,90.61
2019-03-04T01:00:23.286Z,90.61
2019-03-04T01:01:27.612Z,90.60
2019-03-04T01:02:31.800Z,90.59
2019-03-04T01:03:36.380Z,90.60
2019-03-04T01:04:40.629Z,90.55
2019-03-04T01:05:44.879Z,90.56
2019-03-04T01:06:49.154Z,90.52
2019-03-04T01:07:53.420Z,90.52
2019-03-04T01:08:57.726Z,90.52
2019-03-04T01:10:02.085Z,90.50
2019-03-04T01:11:06.246Z,90.49
2019-03-04T01:12:10.691Z,90.47
2019-03-04T01:13:14.915Z,90.47
2019-03-04T01:14:19.268Z,90.45
2019-03-04T01:15:23.495Z,90.44
2019-03-04T01:16:27.878Z,90.42
2019-03-04T01:17:32.115Z,90.31
2019-03-04T01:18:36.411Z,90.29
2019-03-04T01:19:40.712Z,90.32
2019-03-04T01:20:45.081Z,90.31
2019-03-04T01:21:49.332Z,90.29
2019-03-04T01:22:53.596Z,90.28
2019-03-04T01:23:57.911Z,90.24
2019-03-04T01:25:02.172Z,90.19
2019-03-04T01:26:06.551Z,90.17
2019-03-04T01:27:10.863Z,90.11
2019-03-04T01:28:15.088Z,90.08
2019-03-04T01:29:19.455Z,90.06
2019-03-04T01:30:23.676Z,89.95
2019-03-04T01:31:27.849Z,89.90
2019-03-04T01:32:32.176Z,89.91
2019-03-04T01:33:36.504Z,89.94
2019-03-04T01:34:40.791Z,89.97
2019-03-04T01:35:44.953Z,89.97
2019-03-04T01:36:49.323Z,89.95
2019-03-04T01:37:53.590Z,89.90
2019-03-04T01:38:57.923Z,89.92
2019-03-04T01:40:02.232Z,89.93
2019-03-04T01:41:06.513Z,89.95
2019-03-04T01:42:10.815Z,89.89
2019-03-04T01:43:14.976Z,89.79
2019-03-04T01:44:19.333Z,89.80
2019-03-04T01:45:23.491Z,89.78
2019-03-04T01:46:27.834Z,89.77
2019-03-04T01:47:32.110Z,89.71
2019-03-04T01:48:36.422Z,89.58
2019-03-04T01:49:40.713Z,89.62
2019-03-04T01:50:44.995Z,89.41
2019-03-04T01:51:49.298Z,89.46
2019-03-04T01:52:53.679Z,89.46
2019-03-04T01:53:57.905Z,89.36
2019-03-04T01:55:02.212Z,89.35
2019-03-04T01:56:06.533Z,89.39
2019-03-04T01:57:10.813Z,89.35
2019-03-04T01:58:15.083Z,89.31
2019-03-04T01:59:19.351Z,89.32
2019-03-04T02:00:23.629Z,89.32
2019-03-04T02:01:27.907Z,89.29
2019-03-04T02:02:32.214Z,89.28
2019-03-04T02:03:36.497Z,89.28
2019-03-04T02:04:40.675Z,89.31
2019-03-04T02:05:45.007Z,89.31
2019-03-04T02:06:49.226Z,89.21
2019-03-04T02:07:53.556Z,89.20
2019-03-04T02:08:57.829Z,89.23
2019-03-04T02:10:02.087Z,89.22
2019-03-04T02:11:06.415Z,89.14
2019-03-04T02:12:10.676Z,89.08
2019-03-04T02:13:14.946Z,89.12
2019-03-04T02:14:19.220Z,89.17
2019-03-04T02:15:23.592Z,89.12
2019-03-04T02:16:27.772Z,89.09
2019-03-04T02:17:31.918Z,89.02
2019-03-04T02:18:36.226Z,88.97
2019-03-04T02:19:40.573Z,88.98
2019-03-04T02:20:44.865Z,88.97
2019-03-04T02:21:49.137Z,88.95
2019-03-04T02:22:53.407Z,88.84
2019-03-04T02:23:57.676Z,88.83
2019-03-04T02:25:02.069Z,88.71
2019-03-04T02:26:06.311Z,88.74
2019-03-04T02:27:10.610Z,88.78
2019-03-04T02:28:14.858Z,88.74
2019-03-04T02:29:19.234Z,88.70
2019-03-04T02:30:23.392Z,88.75
2019-03-04T02:31:27.736Z,88.69
2019-03-04T02:32:31.995Z,88.71
2019-03-04T02:33:36.286Z,88.67
2019-03-04T02:34:40.605Z,88.73
2019-03-04T02:35:44.906Z,88.68
2019-03-04T02:36:49.145Z,88.75
2019-03-04T02:37:53.544Z,88.74
2019-03-04T02:38:57.868Z,88.75
2019-03-04T02:40:02.127Z,88.58
2019-03-04T02:41:06.311Z,88.71
2019-03-04T02:42:10.631Z,88.72
2019-03-04T02:43:14.892Z,88.70
2019-03-04T02:44:19.184Z,88.69
2019-03-04T02:45:23.482Z,88.71
2019-03-04T02:46:27.779Z,88.68
2019-03-04T02:47:32.136Z,88.70
2019-03-04T02:48:36.473Z,88.63
2019-03-04T02:49:40.715Z,88.62
2019-03-04T02:50:45.104Z,88.60
2019-03-04T02:51:49.270Z,88.59
2019-03-04T02:52:53.616Z,88.64
2019-03-04T02:53:57.882Z,88.69
2019-03-04T02:55:02.165Z,88.66
2019-03-04T02:56:06.431Z,88.61
2019-03-04T02:57:10.760Z,88.69
2019-03-04T02:58:15.027Z,88.67
2019-03-04T02:59:19.303Z,88.59
2019-03-04T03:00:23.594Z,88.58
2019-03-04T03:01:27.860Z,88.57
2019-03-04T03:02:32.144Z,88.60
2019-03-04T03:03:36.422Z,88.58
2019-03-04T03:04:40.688Z,88.56
2019-03-04T03:05:44.909Z,88.54
2019-03-04T03:06:49.191Z,88.50
2019-03-04T03:07:53.439Z,88.50
2019-03-04T03:08:57.713Z,88.49
2019-03-04T03:10:01.900Z,88.46
2019-03-04T03:11:06.265Z,88.40
2019-03-04T03:12:10.661Z,88.47
2019-03-04T03:13:14.893Z,88.50
2019-03-04T03:14:19.183Z,88.45
2019-03-04T03:15:23.448Z,88.50
2019-03-04T03:16:27.731Z,88.53
2019-03-04T03:17:32.021Z,88.56
2019-03-04T03:18:36.293Z,88.57
2019-03-04T03:19:40.563Z,88.56
2019-03-04T03:20:44.837Z,88.58
2019-03-04T03:21:49.109Z,88.55
2019-03-04T03:22:53.379Z,88.48
2019-03-04T03:23:59.301Z,88.46
2019-03-04T03:25:02.021Z,88.45
2019-03-04T03:26:06.352Z,88.43
2019-03-04T03:27:10.602Z,88.39
2019-03-04T03:28:14.910Z,88.36
2019-03-04T03:29:19.202Z,88.42
2019-03-04T03:30:23.516Z,88.41
2019-03-04T03:31:27.760Z,88.39
2019-03-04T03:32:32.044Z,88.30
2019-03-04T03:33:36.345Z,88.06
2019-03-04T03:34:40.632Z,88.10
2019-03-04T03:35:44.908Z,88.06
2019-03-04T03:36:49.181Z,88.02
2019-03-04T03:37:53.503Z,87.94
2019-03-04T03:38:57.767Z,87.92
2019-03-04T03:40:02.045Z,87.98
2019-03-04T03:41:06.359Z,87.91
2019-03-04T03:42:10.619Z,87.82
2019-03-04T03:43:14.896Z,87.89
2019-03-04T03:44:19.188Z,87.86
2019-03-04T03:45:23.452Z,87.93
2019-03-04T03:46:27.859Z,87.97
2019-03-04T03:47:32.080Z,87.85
2019-03-04T03:48:36.361Z,87.82
2019-03-04T03:49:40.623Z,87.86
2019-03-04T03:50:44.901Z,87.83
2019-03-04T03:51:49.199Z,87.82
2019-03-04T03:52:53.449Z,87.74
2019-03-04T03:53:57.769Z,87.86
2019-03-04T03:55:02.053Z,87.89
2019-03-04T03:56:06.329Z,87.80
2019-03-04T03:57:10.584Z,87.83
2019-03-04T03:58:14.882Z,87.89
2019-03-04T03:59:19.171Z,87.92
2019-03-04T04:00:23.457Z,87.88
2019-03-04T04:01:27.788Z,87.81
2019-03-04T04:02:32.082Z,87.88
2019-03-04T04:03:36.395Z,87.82
2019-03-04T04:04:40.689Z,87.64
2019-03-04T04:05:44.957Z,87.36
2019-03-04T04:06:49.218Z,87.41
2019-03-04T04:07:53.563Z,87.40
2019-03-04T04:08:57.844Z,87.43
2019-03-04T04:10:02.108Z,87.41
2019-03-04T04:11:06.344Z,87.45
2019-03-04T04:12:10.517Z,87.31
2019-03-04T04:13:14.853Z,87.38
2019-03-04T04:14:19.131Z,87.30
2019-03-04T04:15:23.397Z,87.34
2019-03-04T04:16:27.781Z,87.23
2019-03-04T04:17:32.065Z,87.17
2019-03-04T04:18:36.303Z,87.19
2019-03-04T04:19:40.615Z,86.90
2019-03-04T04:20:44.882Z,87.08
2019-03-04T04:21:49.171Z,86.88
2019-03-04T04:22:53.453Z,86.86
2019-03-04T04:23:57.708Z,86.96
2019-03-04T04:25:02.026Z,86.60
2019-03-04T04:26:06.267Z,86.83
2019-03-04T04:27:10.534Z,86.78
2019-03-04T04:28:14.733Z,86.75
2019-03-04T04:29:19.062Z,86.79
2019-03-04T04:30:23.273Z,86.69
2019-03-04T04:31:27.591Z,86.69
2019-03-04T04:32:31.848Z,86.74
2019-03-04T04:33:36.172Z,86.78
2019-03-04T04:34:40.463Z,86.82
2019-03-04T04:35:44.745Z,86.94
2019-03-04T04:36:48.999Z,86.97
2019-03-04T04:37:53.292Z,87.09
2019-03-04T04:38:57.584Z,87.02
2019-03-04T04:40:01.960Z,87.12
2019-03-04T04:41:06.149Z,87.13
2019-03-04T04:42:10.334Z,87.14
2019-03-04T04:43:14.595Z,87.11
2019-03-04T04:44:18.934Z,87.06
2019-03-04T04:45:23.306Z,87.06
2019-03-04T04:46:27.532Z,86.94
2019-03-04T04:47:31.832Z,86.92
2019-03-04T04:48:36.085Z,86.98
2019-03-04T04:49:40.365Z,86.84
2019-03-04T04:50:44.679Z,86.81
2019-03-04T04:51:48.937Z,86.96
2019-03-04T04:52:53.192Z,86.92
2019-03-04T04:53:57.508Z,86.94
2019-03-04T04:55:01.757Z,86.81
2019-03-04T04:56:06.070Z,86.84
2019-03-04T04:57:10.325Z,86.76
2019-03-04T04:58:14.647Z,86.83
2019-03-04T04:59:18.909Z,86.96
2019-03-04T05:00:23.174Z,86.81
2019-03-04T05:01:27.455Z,86.68
2019-03-04T05:02:31.767Z,86.79
2019-03-04T05:03:36.033Z,86.51
2019-03-04T05:04:40.232Z,86.48
2019-03-04T05:05:44.591Z,86.49
2019-03-04T05:06:48.836Z,86.48
2019-03-04T05:07:53.137Z,86.61
2019-03-04T05:08:57.420Z,86.42
2019-03-04T05:10:01.677Z,86.45
2019-03-04T05:11:05.992Z,86.35
2019-03-04T05:12:10.265Z,86.36
2019-03-04T05:13:14.496Z,86.21
2019-03-04T05:14:18.931Z,86.16
2019-03-04T05:15:23.155Z,86.23
2019-03-04T05:16:27.457Z,85.98
2019-03-04T05:17:31.661Z,86.11
2019-03-04T05:18:35.975Z,85.89
2019-03-04T05:19:40.334Z,86.02
2019-03-04T05:20:44.568Z,85.76
2019-03-04T05:21:48.820Z,85.97
2019-03-04T05:22:53.099Z,85.84
2019-03-04T05:23:57.416Z,85.82
2019-03-04T05:25:01.625Z,85.95
2019-03-04T05:26:06.042Z,85.98
2019-03-04T05:27:10.294Z,85.89
2019-03-04T05:28:14.472Z,85.88
2019-03-04T05:29:18.908Z,85.87
2019-03-04T05:30:23.135Z,85.76
2019-03-04T05:31:27.444Z,85.92
2019-03-04T05:32:31.760Z,85.89
2019-03-04T05:33:36.040Z,85.80
2019-03-04T05:34:49.345Z,85.41
2019-03-04T05:35:51.929Z,85.44
2019-03-04T05:36:56.864Z,85.48
2019-03-04T05:38:00.835Z,85.32
2019-03-04T05:39:05.149Z,85.32
2019-03-04T05:40:09.440Z,85.48
2019-03-04T05:41:13.546Z,85.52
2019-03-04T05:42:18.058Z,85.47
2019-03-04T05:43:22.258Z,85.42
2019-03-04T05:44:26.532Z,85.20
2019-03-04T05:45:30.728Z,85.38
2019-03-04T05:46:35.061Z,85.05
2019-03-04T05:47:39.358Z,85.35
2019-03-04T05:48:43.650Z,85.13
2019-03-04T05:49:47.890Z,85.04
2019-03-04T05:50:52.279Z,85.23
2019-03-04T05:51:56.677Z,85.21
2019-03-04T05:53:00.877Z,85.31
2019-03-04T05:54:05.137Z,85.07
2019-03-04T05:55:09.401Z,84.88
2019-03-04T05:56:13.682Z,84.75
2019-03-04T05:57:17.987Z,85.01
2019-03-04T05:58:22.398Z,84.85
2019-03-04T05:59:26.621Z,85.01
2019-03-04T06:00:30.889Z,85.06
2019-03-04T06:01:35.193Z,84.98
2019-03-04T06:02:39.507Z,85.13
2019-03-04T06:03:43.803Z,84.97
2019-03-04T06:04:48.078Z,84.79
2019-03-04T06:05:52.371Z,84.99
2019-03-04T06:06:56.626Z,85.06
2019-03-04T06:08:00.942Z,85.08
2019-03-04T06:09:05.139Z,84.98
2019-03-04T06:10:09.498Z,84.95
2019-03-04T06:11:13.765Z,84.84
2019-03-04T06:12:18.063Z,84.86
2019-03-04T06:13:22.320Z,84.65
2019-03-04T06:14:26.671Z,84.71
2019-03-04T06:15:30.951Z,84.76
2019-03-04T06:16:35.245Z,84.79
2019-03-04T06:17:39.584Z,84.44
2019-03-04T06:18:43.836Z,84.23
2019-03-04T06:19:48.098Z,84.37
2019-03-04T06:20:52.393Z,84.30
2019-03-04T06:21:56.666Z,84.24
2019-03-04T06:23:01.007Z,83.99
2019-03-04T06:24:05.293Z,84.02
2019-03-04T06:25:09.578Z,83.89
2019-03-04T06:26:13.880Z,84.12
2019-03-04T06:27:18.249Z,83.94
2019-03-04T06:28:22.482Z,83.84
2019-03-04T06:29:26.763Z,83.71
2019-03-04T06:30:31.171Z,83.76
2019-03-04T06:31:35.368Z,83.23
2019-03-04T06:32:39.560Z,83.44
2019-03-04T06:33:43.926Z,83.80
2019-03-04T06:34:48.194Z,83.82
2019-03-04T06:35:52.590Z,83.73
2019-03-04T06:36:56.825Z,83.60
2019-03-04T06:38:01.162Z,83.65
2019-03-04T06:39:05.295Z,83.49
2019-03-04T06:40:09.682Z,83.61
2019-03-04T06:41:13.962Z,83.45
2019-03-04T06:42:18.237Z,83.34
2019-03-04T06:43:22.567Z,83.62
2019-03-04T06:44:26.838Z,83.80
2019-03-04T06:45:31.105Z,83.52
2019-03-04T06:46:35.450Z,83.47
2019-03-04T06:47:39.671Z,83.27
2019-03-04T06:48:44.044Z,83.15
2019-03-04T06:49:48.201Z,83.10
2019-03-04T06:50:52.521Z,82.81
2019-03-04T06:51:56.800Z,82.99
2019-03-04T06:53:01.144Z,82.99
2019-03-04T06:54:05.414Z,83.00
2019-03-04T06:55:09.642Z,82.90
2019-03-04T06:56:13.968Z,82.52
2019-03-04T06:57:27.897Z,82.83
2019-03-04T06:58:22.587Z,82.74
2019-03-04T06:59:26.847Z,83.00
2019-03-04T07:00:31.130Z,83.09
2019-03-04T07:01:35.434Z,83.03
2019-03-04T07:02:39.531Z,83.16
2019-03-04T07:03:43.954Z,83.07
2019-03-04T07:04:48.207Z,83.31
2019-03-04T07:05:52.524Z,83.21
2019-03-04T07:06:56.794Z,82.99
2019-03-04T07:08:01.093Z,83.06
2019-03-04T07:09:05.413Z,82.81
2019-03-04T07:10:09.687Z,82.94
2019-03-04T07:11:13.945Z,83.17
2019-03-04T07:12:18.298Z,82.92
2019-03-04T07:13:22.633Z,82.78
2019-03-04T07:14:27.007Z,82.40
2019-03-04T07:15:31.273Z,82.25
2019-03-04T07:16:35.553Z,82.36
2019-03-04T07:17:39.842Z,82.36
2019-03-04T07:18:44.015Z,82.14
2019-03-04T07:19:48.401Z,82.43
2019-03-04T07:20:52.708Z,81.76
2019-03-04T07:21:57.005Z,82.08
2019-03-04T07:23:01.362Z,82.16
2019-03-04T07:24:05.623Z,82.14
2019-03-04T07:25:09.983Z,82.28
2019-03-04T07:26:14.247Z,81.70
2019-03-04T07:27:18.546Z,81.43
2019-03-04T07:28:22.825Z,81.71
2019-03-04T07:29:27.224Z,81.93
2019-03-04T07:30:31.470Z,81.70
2019-03-04T07:31:35.779Z,81.75
2019-03-04T07:32:40.070Z,81.42
2019-03-04T07:33:44.433Z,81.63
2019-03-04T07:34:48.714Z,81.62
2019-03-04T07:35:52.993Z,81.70
2019-03-04T07:36:57.278Z,81.91
2019-03-04T07:38:01.483Z,81.58
2019-03-04T07:39:05.820Z,81.71
2019-03-04T07:40:10.113Z,81.26
2019-03-04T07:41:14.386Z,81.39
2019-03-04T07:42:18.613Z,81.75
2019-03-04T07:43:22.953Z,81.75
2019-03-04T07:44:27.240Z,81.46
2019-03-04T07:45:31.497Z,81.70
2019-03-04T07:46:35.788Z,81.87
2019-03-04T07:47:40.065Z,81.94
2019-03-04T07:48:44.363Z,81.97
2019-03-04T07:49:48.710Z,81.38
2019-03-04T07:50:52.858Z,81.52
2019-03-04T07:51:57.204Z,81.59
2019-03-04T07:53:01.538Z,81.01
2019-03-04T07:54:05.831Z,81.06
2019-03-04T07:55:10.264Z,81.04
2019-03-04T07:56:14.516Z,80.97
2019-03-04T07:57:18.703Z,81.33
2019-03-04T07:58:23.083Z,81.46
2019-03-04T07:59:27.355Z,81.25
2019-03-04T08:00:31.679Z,80.68
2019-03-04T08:01:36.001Z,80.92
2019-03-04T08:02:40.387Z,80.87
2019-03-04T08:03:44.654Z,80.24
2019-03-04T08:04:49.025Z,80.80
2019-03-04T08:05:53.247Z,80.61
2019-03-04T08:06:57.554Z,80.70
2019-03-04T08:08:01.806Z,80.42
2019-03-04T08:09:06.015Z,80.21
2019-03-04T08:10:10.382Z,80.32
2019-03-04T08:11:14.649Z,80.81
2019-03-04T08:12:18.852Z,80.02
2019-03-04T08:13:23.206Z,79.77
2019-03-04T08:14:27.520Z,79.94
2019-03-04T08:15:31.841Z,79.71
2019-03-04T08:16:36.416Z,79.36
2019-03-04T08:17:40.361Z,79.84
2019-03-04T08:18:44.603Z,78.92
2019-03-04T08:19:48.934Z,79.77
2019-03-04T08:20:53.236Z,79.26
2019-03-04T08:21:57.528Z,79.21
2019-03-04T08:23:01.806Z,79.24
2019-03-04T08:24:06.123Z,79.46
2019-03-04T08:25:10.361Z,79.45
2019-03-04T08:26:14.689Z,79.25
2019-03-04T08:27:19.052Z,79.23
2019-03-04T08:28:23.313Z,79.56
2019-03-04T08:29:27.674Z,78.45
2019-03-04T08:30:31.971Z,78.54
2019-03-04T08:31:36.394Z,78.13
2019-03-04T08:32:40.594Z,78.05
2019-03-04T08:33:44.915Z,78.62
2019-03-04T08:34:49.218Z,78.35
2019-03-04T08:35:53.532Z,78.82
2019-03-04T08:36:57.855Z,78.67
2019-03-04T08:38:02.155Z,78.72
2019-03-04T08:39:06.473Z,78.96
2019-03-04T08:40:10.722Z,78.14
2019-03-04T08:41:15.096Z,78.39
2019-03-04T08:42:19.374Z,78.28
2019-03-04T08:43:23.677Z,78.43
2019-03-04T08:44:27.958Z,78.79
2019-03-04T08:45:32.185Z,78.88
2019-03-04T08:46:36.511Z,77.90
2019-03-04T08:47:40.812Z,78.01
2019-03-04T08:48:45.122Z,77.91
2019-03-04T08:49:48.762Z,77.72
2019-03-04T08:50:53.093Z,78.21
2019-03-04T08:51:57.372Z,77.80
2019-03-04T08:53:01.591Z,77.25
2019-03-04T08:54:05.967Z,76.38
2019-03-04T08:55:10.271Z,76.69
2019-03-04T08:56:14.612Z,76.26
2019-03-04T08:57:18.897Z,76.84
2019-03-04T08:58:23.167Z,77.18
2019-03-04T08:59:27.460Z,76.43
2019-03-04T09:00:31.849Z,76.56
2019-03-04T09:01:36.119Z,76.53
2019-03-04T09:02:40.347Z,76.77
2019-03-04T09:03:44.567Z,77.19
2019-03-04T09:04:48.915Z,76.78
2019-03-04T09:05:53.147Z,75.92
2019-03-04T09:06:57.341Z,76.20
2019-03-04T09:08:01.766Z,76.94
2019-03-04T09:09:06.100Z,77.21
2019-03-04T09:10:10.388Z,76.57
2019-03-04T09:11:14.735Z,76.63
2019-03-04T09:12:19.133Z,75.89
2019-03-04T09:13:23.394Z,75.92
2019-03-04T09:14:27.719Z,76.27
2019-03-04T09:15:31.942Z,76.16
2019-03-04T09:16:36.314Z,75.44
2019-03-04T09:17:40.606Z,75.33
2019-03-04T09:18:44.971Z,75.44
2019-03-04T09:19:49.249Z,75.61
2019-03-04T09:20:53.548Z,75.91
2019-03-04T09:21:57.763Z,76.34
2019-03-04T09:23:02.163Z,75.87
2019-03-04T09:24:06.409Z,74.92
2019-03-04T09:25:10.593Z,75.79
2019-03-04T09:26:14.825Z,75.09
2019-03-04T09:27:19.224Z,74.97
2019-03-04T09:28:23.540Z,74.98
2019-03-04T09:29:27.823Z,75.06
2019-03-04T09:30:32.173Z,73.67
2019-03-04T09:31:36.411Z,74.11
2019-03-04T09:32:40.697Z,73.18
2019-03-04T09:33:45.072Z,73.65
2019-03-04T09:34:49.385Z,73.29
2019-03-04T09:35:53.714Z,73.30
2019-03-04T09:36:58.035Z,73.24
2019-03-04T09:38:02.385Z,73.01
2019-03-04T09:39:06.833Z,72.73
2019-03-04T09:40:11.133Z,73.27
2019-03-04T09:41:15.398Z,72.40
2019-03-04T09:42:19.726Z,72.55
2019-03-04T09:43:23.945Z,72.42
2019-03-04T09:44:28.308Z,72.52
2019-03-04T09:45:38.784Z,72.35
2019-03-04T09:46:36.932Z,72.31
2019-03-04T09:47:41.300Z,72.30
2019-03-04T09:48:45.590Z,71.66
2019-03-04T09:49:49.914Z,71.78
2019-03-04T09:50:54.272Z,72.30
2019-03-04T09:51:58.593Z,71.34
2019-03-04T09:53:03.003Z,71.93
2019-03-04T09:54:07.257Z,71.86
2019-03-04T09:55:11.605Z,71.33
2019-03-04T09:56:15.932Z,71.14
2019-03-04T09:57:20.261Z,71.96
2019-03-04T09:58:24.579Z,71.81
2019-03-04T09:59:28.934Z,71.33
2019-03-04T10:00:33.225Z,71.33
2019-03-04T10:01:37.586Z,71.41
2019-03-04T10:02:41.886Z,70.46
2019-03-04T10:03:46.204Z,71.36
2019-03-04T10:04:50.539Z,70.69
2019-03-04T10:05:54.879Z,69.95
2019-03-04T10:06:59.205Z,70.58
2019-03-04T10:08:03.569Z,70.35
2019-03-04T10:09:07.883Z,70.35
2019-03-04T10:10:12.155Z,70.81
2019-03-04T10:11:16.582Z,69.76
2019-03-04T10:12:20.894Z,70.02
2019-03-04T10:13:25.214Z,70.69
2019-03-04T10:14:29.559Z,70.96
2019-03-04T10:15:33.901Z,71.07
2019-03-04T10:16:38.212Z,71.06
2019-03-04T10:17:42.513Z,70.76
2019-03-04T10:18:46.850Z,70.87
2019-03-04T10:19:51.158Z,70.99
2019-03-04T10:20:55.489Z,71.56
2019-03-04T10:21:59.845Z,72.35
2019-03-04T10:23:04.173Z,72.86
2019-03-04T10:24:08.501Z,73.59
2019-03-04T10:25:12.824Z,73.94
2019-03-04T10:26:22.765Z,74.69
2019-03-04T10:27:21.451Z,76.03
2019-03-04T10:28:25.741Z,75.94
2019-03-04T10:29:29.954Z,75.73
2019-03-04T10:30:34.319Z,76.41
2019-03-04T10:31:38.705Z,78.37
2019-03-04T10:32:43.055Z,78.50
2019-03-04T10:33:47.338Z,78.74
2019-03-04T10:34:51.594Z,79.47
2019-03-04T10:35:55.916Z,79.14
2019-03-04T10:37:00.273Z,79.42
2019-03-04T10:38:04.524Z,79.50
2019-03-04T10:39:08.795Z,80.28
2019-03-04T10:40:13.079Z,80.39
2019-03-04T10:41:17.402Z,80.34
2019-03-04T10:42:21.759Z,80.29
2019-03-04T10:43:25.994Z,80.54
2019-03-04T10:44:30.277Z,80.90
2019-03-04T10:45:34.577Z,80.70
2019-03-04T10:46:38.758Z,80.68
2019-03-04T10:47:43.096Z,80.94
2019-03-04T10:48:47.358Z,81.17
2019-03-04T10:49:51.563Z,81.20
2019-03-04T10:50:55.897Z,80.84
2019-03-04T10:52:00.218Z,80.60
2019-03-04T10:53:04.473Z,80.57
2019-03-04T10:54:08.797Z,80.81
2019-03-04T10:55:13.062Z,80.58
2019-03-04T10:56:17.350Z,80.58
2019-03-04T10:57:21.652Z,80.42
2019-03-04T10:58:25.956Z,80.30
2019-03-04T10:59:30.242Z,80.64
2019-03-04T11:00:34.488Z,80.46
2019-03-04T11:01:38.853Z,80.64
2019-03-04T11:02:43.036Z,80.75
2019-03-04T11:03:47.360Z,80.77
2019-03-04T11:04:51.673Z,81.23
2019-03-04T11:05:55.873Z,81.46
2019-03-04T11:06:59.993Z,81.22
2019-03-04T11:08:04.351Z,81.18
2019-03-04T11:09:08.633Z,81.01
2019-03-04T11:10:12.925Z,81.17
2019-03-04T11:11:17.230Z,81.12
2019-03-04T11:12:21.498Z,81.03
2019-03-04T11:13:25.817Z,81.17
2019-03-04T11:14:30.091Z,80.93
2019-03-04T11:15:34.438Z,80.99
2019-03-04T11:16:38.657Z,81.14
2019-03-04T11:17:43.029Z,81.00
2019-03-04T11:18:47.279Z,81.04
2019-03-04T11:19:51.560Z,81.02
2019-03-04T11:20:55.860Z,80.98
2019-03-04T11:22:00.149Z,81.09
2019-03-04T11:23:04.475Z,81.25
2019-03-04T11:24:08.791Z,81.13
2019-03-04T11:25:13.050Z,81.10
2019-03-04T11:26:17.318Z,81.16
2019-03-04T11:27:21.579Z,81.16
2019-03-04T11:28:25.875Z,81.14
2019-03-04T11:29:30.174Z,81.04
2019-03-04T11:30:34.451Z,81.11
2019-03-04T11:31:38.708Z,81.07
2019-03-04T11:32:42.871Z,80.91
2019-03-04T11:33:47.227Z,80.83
2019-03-04T11:34:51.464Z,80.96
2019-03-04T11:35:55.794Z,80.93
2019-03-04T11:37:00.037Z,80.83
2019-03-04T11:38:04.322Z,80.59
2019-03-04T11:39:08.540Z,80.48
2019-03-04T11:40:12.906Z,80.42
2019-03-04T11:41:17.136Z,80.15
2019-03-04T11:42:21.441Z,80.21
2019-03-04T11:43:25.655Z,79.78
2019-03-04T11:44:30.093Z,79.49
2019-03-04T11:45:34.434Z,79.19
2019-03-04T11:46:38.676Z,79.08
2019-03-04T11:47:43.043Z,79.28
2019-03-04T11:48:47.285Z,79.25
2019-03-04T11:49:53.380Z,79.23
2019-03-04T11:50:55.888Z,79.41
2019-03-04T11:52:00.157Z,79.52
2019-03-04T11:53:04.545Z,79.62
2019-03-04T11:54:08.785Z,79.69
2019-03-04T11:55:13.102Z,79.80
2019-03-04T11:56:17.233Z,79.92
2019-03-04T11:57:21.562Z,79.94
2019-03-04T11:58:25.839Z,80.07
2019-03-04T11:59:30.147Z,80.14
2019-03-04T12:00:34.415Z,80.08
2019-03-04T12:01:38.716Z,80.21
2019-03-04T12:02:43.036Z,80.09
2019-03-04T12:03:47.330Z,79.98
2019-03-04T12:04:51.566Z,79.81
2019-03-04T12:05:55.896Z,78.59
2019-03-04T12:07:00.042Z,79.13
2019-03-04T12:08:04.432Z,78.84
2019-03-04T12:09:08.774Z,78.92
2019-03-04T12:10:13.074Z,78.21
2019-03-04T12:11:17.363Z,77.75
2019-03-04T12:12:21.771Z,78.29
2019-03-04T12:13:26.012Z,78.11
2019-03-04T12:14:30.226Z,78.20
2019-03-04T12:15:34.541Z,78.02
2019-03-04T12:16:38.774Z,77.60
2019-03-04T12:17:43.113Z,77.23
2019-03-04T12:18:47.460Z,76.58
2019-03-04T12:19:51.754Z,76.72
2019-03-04T12:20:56.094Z,76.39
2019-03-04T12:22:00.347Z,75.81
2019-03-04T12:23:04.660Z,76.02
2019-03-04T12:24:08.913Z,76.11
2019-03-04T12:25:13.230Z,76.08
2019-03-04T12:26:18.618Z,76.46
2019-03-04T12:27:21.767Z,76.59
2019-03-04T12:28:25.976Z,76.39
2019-03-04T12:29:30.237Z,76.52
2019-03-04T12:30:34.562Z,76.26
2019-03-04T12:31:38.841Z,75.53
2019-03-04T12:32:43.008Z,75.83
2019-03-04T12:33:47.343Z,75.87
2019-03-04T12:34:51.642Z,76.23
2019-03-04T12:35:56.012Z,76.09
2019-03-04T12:37:00.334Z,75.82
2019-03-04T12:38:04.466Z,76.28
2019-03-04T12:39:08.779Z,76.36
2019-03-04T12:40:13.087Z,76.38
2019-03-04T12:41:17.448Z,75.34
2019-03-04T12:42:21.594Z,75.80
2019-03-04T12:43:25.934Z,75.82
2019-03-04T12:44:30.309Z,76.07
2019-03-04T12:45:34.885Z,75.66
2019-03-04T12:46:38.801Z,75.43
2019-03-04T12:47:43.158Z,75.75
2019-03-04T12:48:47.451Z,75.52
2019-03-04T12:49:51.838Z,74.27
2019-03-04T12:50:56.013Z,73.67
2019-03-04T12:52:00.257Z,73.90
2019-03-04T12:53:04.517Z,73.70
2019-03-04T12:54:08.873Z,73.53
2019-03-04T12:55:13.045Z,73.59
2019-03-04T12:56:17.350Z,72.77
2019-03-04T12:57:21.787Z,72.74
2019-03-04T12:58:25.947Z,72.16
2019-03-04T12:59:30.208Z,71.16
2019-03-04T13:00:34.599Z,70.76
2019-03-04T13:01:38.914Z,70.80
2019-03-04T13:02:43.257Z,71.39
2019-03-04T13:03:47.553Z,70.53
2019-03-04T13:04:51.768Z,70.25
2019-03-04T13:05:56.137Z,70.25
2019-03-04T13:07:00.430Z,70.16
2019-03-04T13:08:04.713Z,69.54
2019-03-04T13:09:14.508Z,70.50
2019-03-04T13:10:13.260Z,69.35
2019-03-04T13:11:17.578Z,69.57
2019-03-04T13:12:21.880Z,70.30
2019-03-04T13:13:26.160Z,69.81
2019-03-04T13:14:30.384Z,70.36
2019-03-04T13:15:34.684Z,69.84
2019-03-04T13:16:39.079Z,69.30
2019-03-04T13:17:43.387Z,70.00
2019-03-04T13:18:47.569Z,70.15
2019-03-04T13:19:51.859Z,68.83
2019-03-04T13:20:56.188Z,68.44
2019-03-04T13:22:08.307Z,68.74
2019-03-04T13:23:04.609Z,68.26
2019-03-04T13:24:08.962Z,68.89
2019-03-04T13:25:13.127Z,69.11
2019-03-04T13:26:17.483Z,69.80
2019-03-04T13:27:24.019Z,70.08
2019-03-04T13:28:26.011Z,70.34
2019-03-04T13:29:30.312Z,71.05
2019-03-04T13:30:34.616Z,71.62
2019-03-04T13:31:38.883Z,72.03
2019-03-04T13:32:43.082Z,72.83
2019-03-04T13:33:47.535Z,72.73
2019-03-04T13:34:51.732Z,74.89
2019-03-04T13:35:55.973Z,75.41
2019-03-04T13:37:00.424Z,74.66
2019-03-04T13:38:04.704Z,76.73
2019-03-04T13:39:08.889Z,76.95
2019-03-04T13:40:13.242Z,76.95
2019-03-04T13:41:17.561Z,79.07
2019-03-04T13:42:21.741Z,78.16
2019-03-04T13:43:26.035Z,78.87
2019-03-04T13:44:30.395Z,78.63
2019-03-04T13:45:34.633Z,79.05
2019-03-04T13:46:38.911Z,80.21
2019-03-04T13:47:43.227Z,79.77